Time;durP1;ratioP1;P1;durP2;ratioP2;P2;SDS_P1;SDS_P2;PMS_P1;PMS_P2;Temp;Humidity;BMP_temperature;BMP_pressure;BME280_temperature;BME280_humidity;BME280_pressure;Samples;Min_cycle;Max_cycle;Signal;HPM_P1;HPM_P2
2023/04/06 00:01:42;;;;;;;6.90;4.85;;;4.40;92.40;;;;;;4997309;28;20268;-52
2023/04/06 00:04:08;;;;;;;8.40;5.55;;;4.40;92.40;;;;;;5021221;28;20033;-56
2023/04/06 00:06:34;;;;;;;6.55;5.13;;;4.40;92.50;;;;;;5015256;28;20416;-54
2023/04/06 00:09:00;;;;;;;7.45;5.20;;;4.30;92.70;;;;;;5019908;28;20037;-54
2023/04/06 00:11:26;;;;;;;9.02;5.88;;;4.30;92.70;;;;;;5033808;28;20493;-55
2023/04/06 00:13:52;;;;;;;8.40;5.63;;;4.30;92.90;;;;;;5010573;28;20037;-55
2023/04/06 00:16:20;;;;;;;8.52;5.38;;;4.30;93.00;;;;;;5020919;28;20107;-57
2023/04/06 00:18:45;;;;;;;8.23;5.38;;;4.20;93.00;;;;;;5008017;28;20516;-53
2023/04/06 00:21:15;;;;;;;8.77;5.60;;;4.20;93.20;;;;;;5017864;28;20037;-52
2023/04/06 00:23:41;;;;;;;9.40;5.32;;;4.20;93.20;;;;;;5024420;28;20129;-56
2023/04/06 00:26:08;;;;;;;10.35;5.38;;;4.10;93.30;;;;;;5028909;28;20087;-54
2023/04/06 00:28:34;;;;;;;7.05;5.43;;;4.10;93.30;;;;;;5020223;28;20485;-55
2023/04/06 00:31:00;;;;;;;9.05;5.53;;;4.10;93.30;;;;;;5033958;28;20365;-57
2023/04/06 00:33:25;;;;;;;9.18;5.50;;;4.10;93.40;;;;;;5017717;28;20297;-55
2023/04/06 00:35:51;;;;;;;7.75;5.43;;;4.10;93.40;;;;;;5015723;28;20052;-53
2023/04/06 00:38:17;;;;;;;8.68;5.05;;;4.00;93.50;;;;;;5004586;28;20526;-53
2023/04/06 00:40:46;;;;;;;9.07;5.78;;;4.00;93.50;;;;;;4981833;28;20519;-52
2023/04/06 00:43:12;;;;;;;7.72;5.47;;;4.00;93.60;;;;;;5018017;28;20388;-54
2023/04/06 00:45:39;;;;;;;8.13;5.68;;;4.00;93.80;;;;;;5014017;28;20042;-55
2023/04/06 00:48:06;;;;;;;7.70;5.57;;;3.90;94.20;;;;;;5024463;28;20056;-54
2023/04/06 00:50:32;;;;;;;9.85;6.20;;;3.90;94.10;;;;;;5017833;28;20052;-52
2023/04/06 00:52:59;;;;;;;8.57;5.70;;;3.80;94.30;;;;;;5010260;28;20049;-52
2023/04/06 00:55:26;;;;;;;7.57;5.85;;;3.80;94.40;;;;;;4999385;28;20106;-53
2023/04/06 00:57:52;;;;;;;8.30;5.72;;;3.70;94.60;;;;;;5007064;28;20080;-54
2023/04/06 01:00:18;;;;;;;9.95;6.18;;;3.80;94.70;;;;;;5019980;28;20091;-52
2023/04/06 01:02:45;;;;;;;7.82;5.72;;;3.70;94.80;;;;;;5025178;28;20045;-52
2023/04/06 01:05:11;;;;;;;10.68;5.55;;;3.70;94.90;;;;;;5017739;28;20084;-53
2023/04/06 01:07:37;;;;;;;8.13;5.72;;;3.70;94.90;;;;;;5013145;28;20037;-54
2023/04/06 01:10:03;;;;;;;13.25;6.47;;;3.70;95.00;;;;;;5010838;28;20045;-52
2023/04/06 01:12:29;;;;;;;10.40;6.05;;;3.60;95.00;;;;;;5005747;28;20049;-55
2023/04/06 01:14:55;;;;;;;7.88;5.50;;;3.70;95.00;;;;;;5005819;28;20104;-55
2023/04/06 01:17:21;;;;;;;7.25;5.65;;;3.70;95.00;;;;;;5021552;28;20071;-55
2023/04/06 01:19:49;;;;;;;10.55;5.90;;;3.60;95.00;;;;;;5013011;28;20552;-53
2023/04/06 01:22:18;;;;;;;11.43;6.20;;;3.60;95.00;;;;;;5010327;28;20041;-53
2023/04/06 01:24:44;;;;;;;7.40;5.20;;;3.60;95.10;;;;;;5013246;28;20132;-58
2023/04/06 01:27:10;;;;;;;9.25;5.78;;;3.50;95.10;;;;;;4990163;28;20044;-55
2023/04/06 01:29:36;;;;;;;8.00;6.10;;;3.50;95.30;;;;;;5001081;28;20935;-55
2023/04/06 01:32:02;;;;;;;10.63;6.15;;;3.50;95.40;;;;;;5002886;28;20120;-56
2023/04/06 01:34:28;;;;;;;9.18;5.63;;;3.50;95.40;;;;;;4997747;28;20160;-55
2023/04/06 01:36:53;;;;;;;8.60;5.40;;;3.50;95.50;;;;;;5005566;28;20041;-53
2023/04/06 01:39:20;;;;;;;9.00;6.07;;;3.40;95.50;;;;;;4999682;28;20048;-55
2023/04/06 01:41:47;;;;;;;8.85;5.53;;;3.40;95.50;;;;;;4998776;28;20460;-55
2023/04/06 01:44:16;;;;;;;8.02;5.78;;;3.40;95.70;;;;;;5002419;28;20048;-53
2023/04/06 01:46:41;;;;;;;8.00;5.50;;;3.40;95.70;;;;;;5019855;28;20030;-52
2023/04/06 01:49:07;;;;;;;8.52;5.82;;;3.30;95.60;;;;;;4978420;28;20037;-54
2023/04/06 01:51:33;;;;;;;8.68;5.60;;;3.30;95.60;;;;;;5001925;28;20041;-58
2023/04/06 01:53:59;;;;;;;9.18;6.38;;;3.30;95.70;;;;;;5009229;28;20232;-53
2023/04/06 01:56:25;;;;;;;10.13;5.65;;;3.30;95.80;;;;;;5009674;28;20524;-54
2023/04/06 01:58:51;;;;;;;10.20;5.97;;;3.30;95.80;;;;;;5016130;28;20522;-52
2023/04/06 02:01:16;;;;;;;7.55;5.60;;;3.20;95.80;;;;;;5009763;28;20045;-54
2023/04/06 02:03:42;;;;;;;8.55;6.03;;;3.20;95.80;;;;;;5017181;28;20041;-56
2023/04/06 02:06:08;;;;;;;10.52;5.50;;;3.20;95.90;;;;;;4995170;28;20041;-54
2023/04/06 02:08:34;;;;;;;7.45;5.90;;;3.20;95.90;;;;;;5016575;28;20124;-54
2023/04/06 02:10:59;;;;;;;8.85;6.22;;;3.20;95.90;;;;;;5013636;28;20041;-53
2023/04/06 02:13:25;;;;;;;7.72;5.22;;;3.20;95.90;;;;;;5013225;28;20240;-54
2023/04/06 02:15:51;;;;;;;7.43;5.53;;;3.20;95.90;;;;;;5024635;28;20444;-54
2023/04/06 02:18:18;;;;;;;9.65;5.70;;;3.20;95.80;;;;;;5034755;28;20045;-56
2023/04/06 02:20:44;;;;;;;6.45;5.38;;;3.10;95.80;;;;;;5011557;28;20075;-54
2023/04/06 02:23:11;;;;;;;9.02;6.15;;;3.10;95.90;;;;;;5011282;28;20443;-53
2023/04/06 02:25:36;;;;;;;7.57;5.50;;;3.10;95.90;;;;;;5033692;28;20041;-52
2023/04/06 02:28:02;;;;;;;8.00;5.78;;;3.10;95.90;;;;;;4995902;28;20492;-53
2023/04/06 02:30:29;;;;;;;9.43;5.40;;;3.10;95.90;;;;;;4993141;28;20050;-54
2023/04/06 02:32:55;;;;;;;8.40;5.45;;;3.10;95.90;;;;;;5005631;28;20048;-54
2023/04/06 02:35:21;;;;;;;9.18;5.75;;;3.00;95.90;;;;;;4989047;28;20061;-53
2023/04/06 02:37:46;;;;;;;7.50;5.38;;;3.00;96.00;;;;;;5002017;28;20033;-53
2023/04/06 02:40:13;;;;;;;7.57;5.45;;;3.00;96.10;;;;;;5012907;28;20499;-52
2023/04/06 02:42:39;;;;;;;10.60;5.93;;;3.00;96.20;;;;;;5006981;28;20508;-53
2023/04/06 02:45:05;;;;;;;8.95;5.65;;;3.00;96.20;;;;;;5010961;28;20123;-53
2023/04/06 02:47:31;;;;;;;7.72;5.60;;;3.00;96.40;;;;;;5025829;28;20037;-54
2023/04/06 02:49:57;;;;;;;6.43;5.68;;;3.00;96.50;;;;;;5021457;28;20519;-55
2023/04/06 02:52:22;;;;;;;8.48;5.68;;;2.90;96.40;;;;;;5004758;28;20041;-55
2023/04/06 02:54:48;;;;;;;10.35;5.97;;;2.90;96.50;;;;;;5019482;28;20060;-52
2023/04/06 02:57:14;;;;;;;7.03;5.30;;;3.00;96.50;;;;;;5005283;28;20492;-55
2023/04/06 02:59:39;;;;;;;7.53;5.38;;;2.90;96.50;;;;;;5014693;28;20500;-52
2023/04/06 03:02:05;;;;;;;9.52;6.05;;;2.90;96.50;;;;;;5012611;28;20067;-53
2023/04/06 03:04:31;;;;;;;9.65;6.20;;;2.90;96.50;;;;;;5009426;28;20465;-55
2023/04/06 03:06:57;;;;;;;12.18;5.53;;;2.90;96.50;;;;;;5003120;28;20103;-52
2023/04/06 03:09:22;;;;;;;7.22;5.40;;;2.90;96.50;;;;;;4996337;28;20041;-51
2023/04/06 03:11:48;;;;;;;9.65;6.00;;;2.90;96.50;;;;;;5011514;28;20120;-52
2023/04/06 03:14:14;;;;;;;12.20;6.15;;;2.80;96.50;;;;;;5019451;28;20076;-52
2023/04/06 03:16:40;;;;;;;10.35;6.13;;;2.80;96.60;;;;;;5015425;28;20333;-55
2023/04/06 03:19:06;;;;;;;8.00;5.43;;;2.80;96.60;;;;;;4995587;28;20037;-55
2023/04/06 03:21:31;;;;;;;8.55;6.30;;;2.80;96.70;;;;;;5000205;28;20520;-52
2023/04/06 03:23:57;;;;;;;10.68;6.10;;;2.70;96.60;;;;;;5013858;28;20124;-52
2023/04/06 03:26:23;;;;;;;7.60;5.30;;;2.70;96.60;;;;;;4995840;28;20045;-55
2023/04/06 03:28:48;;;;;;;9.55;5.68;;;2.70;96.70;;;;;;5012847;28;20045;-53
2023/04/06 03:31:14;;;;;;;7.05;5.57;;;2.70;96.80;;;;;;5013711;28;20037;-54
2023/04/06 03:33:40;;;;;;;8.80;5.88;;;2.70;96.80;;;;;;5012120;28;20049;-53
2023/04/06 03:36:06;;;;;;;10.32;6.18;;;2.70;96.80;;;;;;5020011;28;20083;-52
2023/04/06 03:38:32;;;;;;;8.43;5.97;;;2.70;96.80;;;;;;4993039;28;20042;-54
2023/04/06 03:40:58;;;;;;;8.82;6.28;;;2.70;96.80;;;;;;5002286;28;20052;-52
2023/04/06 03:43:24;;;;;;;10.05;5.90;;;2.70;96.80;;;;;;5001525;28;20116;-52
2023/04/06 03:45:49;;;;;;;9.18;6.80;;;2.70;96.80;;;;;;4999528;28;20244;-52
2023/04/06 03:48:15;;;;;;;9.63;6.28;;;2.70;96.80;;;;;;5004594;28;20044;-54
2023/04/06 03:50:41;;;;;;;8.40;6.20;;;2.60;96.80;;;;;;5027441;28;20045;-53
2023/04/06 03:53:07;;;;;;;11.80;7.10;;;2.60;96.90;;;;;;4999529;28;20029;-54
2023/04/06 03:55:32;;;;;;;10.15;6.47;;;2.60;96.90;;;;;;5014760;28;20048;-55
2023/04/06 03:57:58;;;;;;;9.43;6.53;;;2.60;96.90;;;;;;4993141;28;20041;-55
2023/04/06 04:00:25;;;;;;;7.55;5.85;;;2.60;96.90;;;;;;5007231;28;20106;-54
2023/04/06 04:02:50;;;;;;;8.43;5.93;;;2.60;96.90;;;;;;5001005;28;20047;-55
2023/04/06 04:05:16;;;;;;;8.07;6.65;;;2.50;96.90;;;;;;5001132;28;20049;-56
2023/04/06 04:07:42;;;;;;;9.32;7.20;;;2.50;97.00;;;;;;4992672;28;20400;-52
2023/04/06 04:10:08;;;;;;;10.00;6.60;;;2.60;97.00;;;;;;5000432;28;20049;-52
2023/04/06 04:12:34;;;;;;;9.55;6.47;;;2.50;97.00;;;;;;4997339;28;20042;-53
2023/04/06 04:14:59;;;;;;;9.80;6.65;;;2.50;97.00;;;;;;4990473;28;20113;-55
2023/04/06 04:17:25;;;;;;;9.35;6.28;;;2.50;97.10;;;;;;5014059;28;20701;-54
2023/04/06 04:19:51;;;;;;;8.52;6.25;;;2.50;97.10;;;;;;4994603;28;20044;-53
2023/04/06 04:22:17;;;;;;;13.52;7.28;;;2.50;97.10;;;;;;5019673;28;20048;-53
2023/04/06 04:24:42;;;;;;;8.45;6.47;;;2.50;97.20;;;;;;5006972;28;20069;-53
2023/04/06 04:27:08;;;;;;;9.70;6.65;;;2.40;97.30;;;;;;5013597;28;20102;-55
2023/04/06 04:29:34;;;;;;;13.40;7.15;;;2.50;97.40;;;;;;4998435;28;20047;-53
2023/04/06 04:32:00;;;;;;;9.88;7.22;;;2.50;97.40;;;;;;5010727;28;20038;-54
2023/04/06 04:34:26;;;;;;;9.07;6.45;;;2.50;97.40;;;;;;5008510;28;20751;-54
2023/04/06 04:36:52;;;;;;;14.07;7.55;;;2.50;97.50;;;;;;5012352;28;20045;-55
2023/04/06 04:39:18;;;;;;;12.43;7.22;;;2.50;97.60;;;;;;5017140;28;20052;-56
2023/04/06 04:41:44;;;;;;;8.68;6.78;;;2.50;97.60;;;;;;5012536;28;20412;-52
2023/04/06 04:44:09;;;;;;;25.63;9.48;;;2.50;97.60;;;;;;5011551;28;20034;-53
2023/04/06 04:46:35;;;;;;;12.20;7.70;;;2.50;97.70;;;;;;4998027;28;20060;-54
2023/04/06 04:49:01;;;;;;;11.50;7.70;;;2.50;97.70;;;;;;5017661;28;20860;-55
2023/04/06 04:51:27;;;;;;;11.10;7.68;;;2.40;97.70;;;;;;5009612;28;20095;-57
2023/04/06 04:53:53;;;;;;;10.68;7.43;;;2.40;97.70;;;;;;5014331;28;20400;-53
2023/04/06 04:56:19;;;;;;;10.98;7.35;;;2.40;97.70;;;;;;5025498;28;20037;-57
2023/04/06 04:58:45;;;;;;;11.15;7.28;;;2.40;97.80;;;;;;5014387;28;20048;-56
2023/04/06 05:01:10;;;;;;;12.10;7.43;;;2.40;97.80;;;;;;4995620;28;20038;-55
2023/04/06 05:03:38;;;;;;;11.98;7.80;;;2.40;97.90;;;;;;4995879;28;20484;-53
2023/04/06 05:06:04;;;;;;;10.57;7.90;;;2.40;98.10;;;;;;5022412;28;20036;-54
2023/04/06 05:08:30;;;;;;;10.63;7.68;;;2.40;97.90;;;;;;5013333;28;20404;-54
2023/04/06 05:10:56;;;;;;;14.65;8.18;;;2.30;97.80;;;;;;5009559;28;20042;-52
2023/04/06 05:13:22;;;;;;;11.55;8.00;;;2.30;97.90;;;;;;5037169;28;20052;-55
2023/04/06 05:15:48;;;;;;;11.00;7.60;;;2.30;97.90;;;;;;5001241;28;20034;-54
2023/04/06 05:18:14;;;;;;;12.35;8.18;;;2.30;97.90;;;;;;5003441;28;20107;-55
2023/04/06 05:20:40;;;;;;;10.13;7.35;;;2.30;98.00;;;;;;4998018;28;20037;-56
2023/04/06 05:23:06;;;;;;;12.27;7.55;;;2.40;98.00;;;;;;5013332;28;20090;-53
2023/04/06 05:25:32;;;;;;;14.07;7.75;;;2.40;98.10;;;;;;5015111;28;20069;-52
2023/04/06 05:27:58;;;;;;;12.75;8.32;;;2.40;98.10;;;;;;4993380;28;20124;-57
2023/04/06 05:30:24;;;;;;;11.82;8.50;;;2.40;98.10;;;;;;5011089;28;20051;-54
2023/04/06 05:32:50;;;;;;;11.50;8.13;;;2.40;98.30;;;;;;5027362;28;20051;-55
2023/04/06 05:35:19;;;;;;;11.32;7.53;;;2.40;98.30;;;;;;5019409;28;20448;-56
2023/04/06 05:37:45;;;;;;;17.05;8.70;;;2.40;98.30;;;;;;5006182;28;20034;-55
2023/04/06 05:40:11;;;;;;;10.40;7.47;;;2.40;98.50;;;;;;5017659;28;20033;-53
2023/04/06 05:42:38;;;;;;;13.18;8.82;;;2.40;98.50;;;;;;4994373;28;20045;-53
2023/04/06 05:45:08;;;;;;;13.32;8.93;;;2.50;98.60;;;;;;5005713;28;20524;-53
2023/04/06 05:47:33;;;;;;;14.60;9.35;;;2.50;98.70;;;;;;5008962;28;20115;-55
2023/04/06 05:49:59;;;;;;;13.38;8.57;;;2.50;98.80;;;;;;4999655;28;20034;-52
2023/04/06 05:52:25;;;;;;;10.52;7.75;;;2.60;98.90;;;;;;4995267;28;20242;-58
2023/04/06 05:54:51;;;;;;;13.18;8.52;;;2.60;99.00;;;;;;5012288;28;20037;-52
2023/04/06 05:57:18;;;;;;;11.55;8.20;;;2.70;99.00;;;;;;5014402;28;20121;-52
2023/04/06 05:59:46;;;;;;;13.43;8.10;;;2.70;98.90;;;;;;5017670;28;20057;-55
2023/04/06 06:02:12;;;;;;;11.80;8.85;;;2.80;99.00;;;;;;5013205;28;20037;-56
2023/04/06 06:04:38;;;;;;;13.38;8.40;;;2.80;99.10;;;;;;4996191;28;20069;-55
2023/04/06 06:07:03;;;;;;;12.05;7.80;;;2.80;99.10;;;;;;4997891;28;20095;-54
2023/04/06 06:09:29;;;;;;;10.10;7.28;;;2.90;99.40;;;;;;4989542;28;20033;-57
2023/04/06 06:11:55;;;;;;;15.15;8.07;;;2.90;99.30;;;;;;4997846;28;20039;-56
2023/04/06 06:14:21;;;;;;;13.43;7.93;;;3.10;99.40;;;;;;4996542;28;20044;-56
2023/04/06 06:16:47;;;;;;;11.10;7.82;;;3.20;99.40;;;;;;4999367;28;20036;-56
2023/04/06 06:19:13;;;;;;;15.98;8.85;;;3.30;99.40;;;;;;5009938;28;20041;-58
2023/04/06 06:21:39;;;;;;;12.52;8.35;;;3.40;99.30;;;;;;5002866;28;20034;-53
2023/04/06 06:24:06;;;;;;;11.77;8.15;;;3.40;99.40;;;;;;5006002;28;20056;-56
2023/04/06 06:26:32;;;;;;;11.73;8.20;;;3.40;99.20;;;;;;5010836;28;20044;-54
2023/04/06 06:28:58;;;;;;;13.13;8.45;;;3.40;99.10;;;;;;5006886;28;20037;-55
2023/04/06 06:31:24;;;;;;;13.00;8.80;;;3.50;99.10;;;;;;4995262;28;20045;-56
2023/04/06 06:33:51;;;;;;;12.25;8.20;;;3.60;99.10;;;;;;5023342;28;20080;-55
2023/04/06 06:36:20;;;;;;;13.30;9.00;;;3.60;99.10;;;;;;5012718;28;20411;-54
2023/04/06 06:38:45;;;;;;;12.65;8.52;;;3.70;99.00;;;;;;5014932;28;20526;-53
2023/04/06 06:41:11;;;;;;;13.57;9.15;;;3.80;99.00;;;;;;5011221;28;20037;-57
2023/04/06 06:43:37;;;;;;;16.10;9.00;;;4.00;99.00;;;;;;5014821;28;20045;-53
2023/04/06 06:46:03;;;;;;;12.00;8.52;;;4.10;99.00;;;;;;5009645;28;20030;-55
2023/04/06 06:48:30;;;;;;;11.95;8.48;;;4.20;99.10;;;;;;4992541;28;20041;-54
2023/04/06 06:50:56;;;;;;;13.93;8.82;;;4.40;99.10;;;;;;5001357;28;20128;-55
2023/04/06 06:53:23;;;;;;;12.75;8.70;;;4.50;98.80;;;;;;5004307;28;20044;-56
2023/04/06 06:55:48;;;;;;;12.10;8.32;;;4.60;98.50;;;;;;5007093;28;20496;-52
2023/04/06 06:58:15;;;;;;;12.30;8.82;;;4.70;98.40;;;;;;5021180;28;20341;-52
2023/04/06 07:00:40;;;;;;;10.80;7.95;;;4.70;98.30;;;;;;5009569;28;20083;-56
2023/04/06 07:03:06;;;;;;;12.73;8.35;;;4.70;98.20;;;;;;5007818;28;20477;-53
2023/04/06 07:05:32;;;;;;;11.45;8.13;;;4.80;98.00;;;;;;5008115;28;20425;-54
2023/04/06 07:07:58;;;;;;;11.10;8.48;;;5.00;98.00;;;;;;5004668;28;20398;-54
2023/04/06 07:10:24;;;;;;;13.05;8.77;;;5.20;98.00;;;;;;4998635;28;20420;-55
2023/04/06 07:12:50;;;;;;;11.85;8.13;;;5.40;98.00;;;;;;5011630;28;20052;-56
2023/04/06 07:15:17;;;;;;;14.35;8.20;;;5.60;97.80;;;;;;5010009;28;20143;-54
2023/04/06 07:17:44;;;;;;;13.02;8.25;;;5.80;97.20;;;;;;5002289;28;20053;-54
2023/04/06 07:20:11;;;;;;;13.63;8.13;;;6.10;97.00;;;;;;5012176;28;20049;-56
2023/04/06 07:22:38;;;;;;;13.55;8.65;;;6.30;96.50;;;;;;5006522;28;20056;-55
2023/04/06 07:25:04;;;;;;;12.30;8.48;;;6.50;96.40;;;;;;5020467;28;20357;-55
2023/04/06 07:27:30;;;;;;;14.27;8.55;;;6.70;96.60;;;;;;4990789;28;20033;-56
2023/04/06 07:29:56;;;;;;;11.23;7.68;;;6.90;96.10;;;;;;5014589;28;20073;-54
2023/04/06 07:32:22;;;;;;;11.55;7.90;;;7.00;96.00;;;;;;5012880;28;20037;-54
2023/04/06 07:34:47;;;;;;;13.38;8.40;;;7.30;95.70;;;;;;5019600;28;20138;-55
2023/04/06 07:37:13;;;;;;;15.40;8.57;;;7.50;95.20;;;;;;5014426;28;20106;-58
2023/04/06 07:39:40;;;;;;;11.43;8.30;;;7.60;95.00;;;;;;5012299;28;20048;-53
2023/04/06 07:42:05;;;;;;;11.05;7.93;;;7.80;94.70;;;;;;5015566;28;20052;-54
2023/04/06 07:44:31;;;;;;;12.23;8.20;;;8.00;94.60;;;;;;4987147;28;20036;-56
2023/04/06 07:46:57;;;;;;;12.93;8.00;;;8.10;93.90;;;;;;5002300;28;22487;-53
2023/04/06 07:49:23;;;;;;;14.30;8.23;;;8.20;93.50;;;;;;5023047;28;20044;-55
2023/04/06 07:51:49;;;;;;;13.48;8.07;;;8.10;93.40;;;;;;5005978;28;20040;-55
2023/04/06 07:54:15;;;;;;;13.10;8.73;;;8.10;93.00;;;;;;5014643;28;20546;-55
2023/04/06 07:56:40;;;;;;;17.42;8.45;;;8.00;92.40;;;;;;5013929;28;20240;-56
2023/04/06 07:59:06;;;;;;;12.32;7.70;;;8.00;91.70;;;;;;5023046;28;20045;-56
2023/04/06 08:01:32;;;;;;;11.52;8.35;;;8.00;92.30;;;;;;5011061;28;20041;-59
2023/04/06 08:03:58;;;;;;;11.18;7.78;;;8.10;92.70;;;;;;5007319;28;20029;-57
2023/04/06 08:06:24;;;;;;;12.98;9.40;;;8.10;92.70;;;;;;5007616;28;20129;-56
2023/04/06 08:08:50;;;;;;;15.32;8.48;;;8.20;92.70;;;;;;5005438;28;20094;-56
2023/04/06 08:11:16;;;;;;;12.98;8.15;;;8.20;93.10;;;;;;4990003;28;20045;-59
2023/04/06 08:13:42;;;;;;;16.05;8.85;;;8.30;93.20;;;;;;4986609;28;20116;-56
2023/04/06 08:16:08;;;;;;;13.77;8.55;;;8.40;92.80;;;;;;4990414;28;20051;-54
2023/04/06 08:18:33;;;;;;;13.85;9.07;;;8.40;92.30;;;;;;5027597;28;20045;-54
2023/04/06 08:20:59;;;;;;;11.95;7.63;;;8.50;92.20;;;;;;5018852;28;20409;-59
2023/04/06 08:23:25;;;;;;;13.32;8.68;;;8.50;92.30;;;;;;4990182;28;20041;-53
2023/04/06 08:25:54;;;;;;;13.80;8.90;;;8.60;92.10;;;;;;5000361;28;20056;-56
2023/04/06 08:28:21;;;;;;;13.50;8.75;;;8.80;92.40;;;;;;4996120;28;20340;-53
2023/04/06 08:30:47;;;;;;;15.73;8.63;;;8.90;92.30;;;;;;5002548;28;20433;-56
2023/04/06 08:33:12;;;;;;;14.50;9.30;;;9.20;92.40;;;;;;4994735;28;20034;-56
2023/04/06 08:35:38;;;;;;;12.43;8.85;;;9.30;91.80;;;;;;5006520;28;20045;-56
2023/04/06 08:38:04;;;;;;;12.95;9.40;;;9.50;91.80;;;;;;5020567;28;20088;-58
2023/04/06 08:40:35;;;;;;;15.75;8.98;;;9.50;91.20;;;;;;5008431;28;20041;-56
2023/04/06 08:43:08;;;;;;;15.23;9.55;;;9.50;91.10;;;;;;5009117;28;20042;-54
2023/04/06 08:45:34;;;;;;;13.00;8.43;;;9.50;91.10;;;;;;5003239;28;20033;-58
2023/04/06 08:48:02;;;;;;;14.98;10.32;;;9.60;91.10;;;;;;4985661;28;20551;-57
2023/04/06 08:50:30;;;;;;;12.90;8.52;;;9.50;90.30;;;;;;5005791;28;20128;-57
2023/04/06 08:52:56;;;;;;;14.10;10.10;;;9.50;90.80;;;;;;4999407;28;20512;-55
2023/04/06 08:55:22;;;;;;;16.63;10.23;;;9.60;90.90;;;;;;5020926;28;20539;-55
2023/04/06 08:57:48;;;;;;;16.73;10.50;;;9.70;90.30;;;;;;5010141;28;20440;-56
2023/04/06 09:00:15;;;;;;;15.55;10.80;;;9.80;90.80;;;;;;4993932;28;20053;-56
2023/04/06 09:02:44;;;;;;;15.02;10.07;;;9.90;90.30;;;;;;5011080;28;20436;-56
2023/04/06 09:05:10;;;;;;;17.08;9.95;;;9.90;90.30;;;;;;5008362;28;20103;-55
2023/04/06 09:07:36;;;;;;;16.45;10.98;;;10.00;90.20;;;;;;5004200;28;20076;-57
2023/04/06 09:10:06;;;;;;;19.30;10.88;;;10.00;90.20;;;;;;5006018;28;20089;-56
2023/04/06 09:12:32;;;;;;;18.05;11.90;;;10.10;90.20;;;;;;5002392;28;20049;-56
2023/04/06 09:14:59;;;;;;;16.70;11.52;;;10.10;90.40;;;;;;5021740;28;20599;-59
2023/04/06 09:17:32;;;;;;;17.15;11.18;;;10.20;90.60;;;;;;4989369;28;20056;-56
2023/04/06 09:20:00;;;;;;;16.02;11.43;;;10.30;90.00;;;;;;5001316;28;20103;-52
2023/04/06 09:22:52;;;;;;;18.98;11.70;;;10.50;89.80;;;;;;5020603;28;20041;-56
2023/04/06 09:25:28;;;;;;;16.83;11.48;;;10.50;89.10;;;;;;5000192;28;20111;-56
2023/04/06 09:28:06;;;;;;;18.80;11.48;;;10.60;88.20;;;;;;4992039;28;20040;-56
2023/04/06 09:30:32;;;;;;;16.73;11.77;;;10.80;88.00;;;;;;5006401;28;20337;-55
2023/04/06 09:32:59;;;;;;;18.55;12.70;;;11.00;88.60;;;;;;5007774;28;20103;-57
2023/04/06 09:35:29;;;;;;;17.55;12.50;;;11.10;88.80;;;;;;5007427;28;20045;-56
2023/04/06 09:37:55;;;;;;;18.73;11.07;;;11.20;87.90;;;;;;4991519;28;20047;-56
2023/04/06 09:40:22;;;;;;;18.33;12.52;;;11.20;85.30;;;;;;4986376;28;20398;-53
2023/04/06 09:42:53;;;;;;;19.58;13.77;;;11.30;87.20;;;;;;4991411;28;20050;-56
2023/04/06 09:45:20;;;;;;;16.67;11.75;;;11.40;86.00;;;;;;5009164;28;20051;-54
2023/04/06 09:47:46;;;;;;;21.95;13.45;;;11.60;86.30;;;;;;5012702;28;20107;-57
2023/04/06 09:50:13;;;;;;;18.65;12.40;;;11.70;85.90;;;;;;4999471;28;20477;-56
2023/04/06 09:52:49;;;;;;;18.77;12.77;;;11.80;86.30;;;;;;5009074;28;20041;-55
2023/04/06 09:55:35;;;;;;;20.98;13.02;;;12.10;87.40;;;;;;5016136;28;20508;-53
2023/04/06 09:58:06;;;;;;;24.75;13.20;;;12.30;83.70;;;;;;5022121;28;20041;-55
2023/04/06 10:00:39;;;;;;;17.27;13.18;;;12.40;84.50;;;;;;5021779;28;20037;-53
2023/04/06 10:03:08;;;;;;;;;;;12.40;84.30;;;;;;5008217;28;20106;-54
2023/04/06 10:05:54;;;;;;;18.50;12.60;;;12.40;83.90;;;;;;5013682;28;20582;-54
2023/04/06 10:08:24;;;;;;;19.10;14.25;;;12.40;84.30;;;;;;4994285;28;20045;-53
2023/04/06 10:10:51;;;;;;;20.20;14.55;;;12.40;84.30;;;;;;5005157;28;20562;-55
2023/04/06 10:13:18;;;;;;;19.50;14.07;;;12.40;83.50;;;;;;5003789;28;20235;-54
2023/04/06 10:15:44;;;;;;;19.70;14.15;;;12.30;83.20;;;;;;5004885;28;20052;-55
2023/04/06 10:18:11;;;;;;;21.77;13.68;;;12.30;82.70;;;;;;4986863;28;20124;-53
2023/04/06 10:21:04;;;;;;;18.05;13.23;;;12.30;83.30;;;;;;4985158;28;20045;-58
2023/04/06 10:23:43;;;;;;;18.52;13.25;;;12.40;83.50;;;;;;5006123;28;20089;-53
2023/04/06 10:26:17;;;;;;;19.17;12.95;;;12.60;83.20;;;;;;4990778;28;20037;-54
2023/04/06 10:28:45;;;;;;;20.42;14.30;;;12.40;82.70;;;;;;5012219;28;20489;-52
2023/04/06 10:31:11;;;;;;;19.45;14.10;;;12.30;83.30;;;;;;5005731;28;20136;-54
2023/04/06 10:33:37;;;;;;;19.95;14.82;;;12.50;84.60;;;;;;5026371;28;20037;-56
2023/04/06 10:36:21;;;;;;;25.35;14.65;;;12.60;84.50;;;;;;4981618;28;20063;-56
2023/04/06 10:38:53;;;;;;;21.33;14.75;;;12.60;83.30;;;;;;4999232;28;20416;-55
2023/04/06 10:41:20;;;;;;;21.63;14.85;;;12.60;83.00;;;;;;4992317;28;20052;-57
2023/04/06 10:43:56;;;;;;;23.90;15.10;;;12.50;83.00;;;;;;5004162;28;20184;-57
2023/04/06 10:46:26;;;;;;;21.73;14.65;;;12.30;81.50;;;;;;4994840;28;20057;-55
2023/04/06 10:48:52;;;;;;;23.58;15.32;;;12.30;82.60;;;;;;5001110;28;20042;-55
2023/04/06 10:51:23;;;;;;;19.10;14.93;;;12.20;82.40;;;;;;5022417;28;20049;-56
2023/04/06 10:53:50;;;;;;;21.60;14.90;;;12.20;82.40;;;;;;4999530;28;20129;-58
2023/04/06 10:56:17;;;;;;;21.00;14.13;;;12.30;82.90;;;;;;4993235;28;20065;-57
2023/04/06 10:58:55;;;;;;;26.50;16.30;;;12.30;83.30;;;;;;5009976;28;20056;-55
2023/04/06 11:01:22;;;;;;;21.83;15.80;;;12.50;82.50;;;;;;5004641;28;20078;-58
2023/04/06 11:03:51;;;;;;;22.73;15.80;;;12.60;83.20;;;;;;4992776;28;20490;-54
2023/04/06 11:06:28;;;;;;;28.88;15.73;;;12.70;82.80;;;;;;5008006;28;20038;-55
2023/04/06 11:08:55;;;;;;;24.02;16.60;;;12.60;81.50;;;;;;4988271;28;20041;-55
2023/04/06 11:11:23;;;;;;;23.25;16.00;;;12.70;81.50;;;;;;5007153;28;20060;-56
2023/04/06 11:13:52;;;;;;;30.65;16.63;;;12.80;80.50;;;;;;5006485;28;20088;-57
2023/04/06 11:16:23;;;;;;;24.58;16.05;;;12.90;81.70;;;;;;5015700;28;20049;-55
2023/04/06 11:19:01;;;;;;;28.15;16.20;;;12.90;81.20;;;;;;4986517;28;20095;-56
2023/04/06 11:21:39;;;;;;;29.48;16.95;;;12.90;80.60;;;;;;5004480;28;20061;-58
2023/04/06 11:24:16;;;;;;;26.27;16.73;;;13.00;80.60;;;;;;5005548;28;20049;-55
2023/04/06 11:26:44;;;;;;;27.45;17.17;;;13.20;81.70;;;;;;5006257;28;20056;-57
2023/04/06 11:29:12;;;;;;;25.98;16.75;;;13.30;80.70;;;;;;5007318;28;20496;-56
2023/04/06 11:31:42;;;;;;;26.55;17.88;;;13.40;81.00;;;;;;5006103;28;20051;-55
2023/04/06 11:34:29;;;;;;;24.08;17.80;;;13.40;79.90;;;;;;5020102;28;20030;-55
2023/04/06 11:37:00;;;;;;;25.58;17.73;;;13.20;79.50;;;;;;4990757;28;20124;-54
2023/04/06 11:39:27;;;;;;;26.08;16.50;;;13.20;80.60;;;;;;5004531;28;20182;-58
2023/04/06 11:41:57;;;;;;;23.45;16.75;;;13.10;80.90;;;;;;4999527;28;20548;-53
2023/04/06 11:44:33;;;;;;;22.73;16.48;;;13.20;80.90;;;;;;5007379;28;20069;-56
2023/04/06 11:47:00;;;;;;;27.05;17.13;;;13.20;81.80;;;;;;5002932;28;20083;-56
2023/04/06 11:49:30;;;;;;;29.02;17.27;;;13.10;81.00;;;;;;5011101;28;20049;-57
2023/04/06 11:51:57;;;;;;;25.58;17.67;;;13.10;81.60;;;;;;5009618;28;20037;-57
2023/04/06 11:54:36;;;;;;;28.60;18.00;;;13.10;82.40;;;;;;5013335;28;20531;-58
2023/04/06 11:57:04;;;;;;;26.38;18.08;;;13.20;81.90;;;;;;5009438;28;20114;-55
2023/04/06 11:59:30;;;;;;;26.15;16.40;;;13.20;81.90;;;;;;5007902;28;20127;-56
2023/04/06 12:01:57;;;;;;;24.80;16.73;;;13.30;81.80;;;;;;5011872;28;20459;-56
2023/04/06 12:04:23;;;;;;;26.00;17.83;;;13.40;81.40;;;;;;4995808;28;20056;-56
2023/04/06 12:06:49;;;;;;;26.50;17.67;;;13.40;81.00;;;;;;5006167;28;20788;-55
2023/04/06 12:09:20;;;;;;;25.92;17.48;;;13.40;81.50;;;;;;4994502;28;20117;-53
2023/04/06 12:11:46;;;;;;;27.90;16.75;;;13.40;81.50;;;;;;5010879;28;20065;-57
2023/04/06 12:14:13;;;;;;;24.20;16.48;;;13.40;81.90;;;;;;5034024;28;20553;-57
2023/04/06 12:16:39;;;;;;;22.70;15.55;;;13.40;81.80;;;;;;5017678;28;20033;-57
2023/04/06 12:19:05;;;;;;;25.55;16.38;;;13.30;81.80;;;;;;5021791;28;20080;-55
2023/04/06 12:21:32;;;;;;;24.35;16.80;;;13.40;81.90;;;;;;5019168;28;20459;-58
2023/04/06 12:23:58;;;;;;;23.40;15.73;;;13.40;82.20;;;;;;5018425;28;20500;-52
2023/04/06 12:26:24;;;;;;;23.25;16.17;;;13.50;82.10;;;;;;5018163;28;20127;-54
2023/04/06 12:28:50;;;;;;;24.05;15.77;;;13.50;82.40;;;;;;5001679;28;20049;-57
2023/04/06 12:31:17;;;;;;;20.17;15.25;;;13.60;83.00;;;;;;5004351;28;20037;-56
2023/04/06 12:33:44;;;;;;;21.70;15.48;;;13.70;82.50;;;;;;4985124;28;20084;-60
2023/04/06 12:36:15;;;;;;;20.35;14.48;;;13.80;82.90;;;;;;5000975;28;20108;-54
2023/04/06 12:38:41;;;;;;;21.25;14.77;;;13.80;83.00;;;;;;5007199;28;20049;-57
2023/04/06 12:41:07;;;;;;;21.42;15.98;;;13.70;82.70;;;;;;4998058;28;20663;-58
2023/04/06 12:43:33;;;;;;;22.08;15.82;;;13.60;83.00;;;;;;4989795;28;20099;-55